createdAt,value
2022-09-12T00:00:25.498Z,23.14
2022-09-12T00:02:56.501Z,23.11
2022-09-12T00:05:26.055Z,23.07
2022-09-12T00:07:56.318Z,23.02
2022-09-12T00:10:25.460Z,23.01
2022-09-12T00:12:55.085Z,23.02
2022-09-12T00:15:24.383Z,22.98
2022-09-12T00:17:53.845Z,22.94
2022-09-12T00:20:23.211Z,22.86
2022-09-12T00:22:52.368Z,22.78
2022-09-12T00:25:21.454Z,22.76
2022-09-12T00:27:50.697Z,22.70
2022-09-12T00:30:20.279Z,22.67
2022-09-12T00:32:50.405Z,22.66
2022-09-12T00:35:19.708Z,22.63
2022-09-12T00:37:48.732Z,22.58
2022-09-12T00:40:18.708Z,22.50
2022-09-12T00:42:50.861Z,22.43
2022-09-12T00:45:30.722Z,22.35
2022-09-12T00:48:05.691Z,22.30
2022-09-12T00:50:35.499Z,22.24
2022-09-12T00:53:10.170Z,22.23
2022-09-12T00:55:50.206Z,22.21
2022-09-12T00:58:35.784Z,22.15
2022-09-12T01:01:05.288Z,22.06
2022-09-12T01:03:34.870Z,21.98
2022-09-12T01:06:21.022Z,21.89
2022-09-12T01:08:52.360Z,21.81
2022-09-12T01:11:23.569Z,21.72
2022-09-12T01:13:53.389Z,21.65
2022-09-12T01:16:22.820Z,21.57
2022-09-12T01:19:06.256Z,21.49
2022-09-12T01:21:59.357Z,21.41
2022-09-12T01:24:48.022Z,21.28
2022-09-12T01:27:44.440Z,21.21
2022-09-12T01:31:07.977Z,21.13
2022-09-12T01:33:52.060Z,21.02
2022-09-12T01:37:18.237Z,20.91
2022-09-12T01:40:10.139Z,20.78
2022-09-12T01:43:04.369Z,20.70
2022-09-12T01:46:04.650Z,20.63
2022-09-12T01:48:46.493Z,20.56
2022-09-12T01:51:42.804Z,20.49
2022-09-12T01:54:52.169Z,20.41
2022-09-12T01:57:34.739Z,20.36
2022-09-12T02:00:12.993Z,20.33
2022-09-12T02:03:16.685Z,20.30
2022-09-12T02:06:14.406Z,20.27
2022-09-12T02:08:57.593Z,20.25
2022-09-12T02:11:27.378Z,20.23
2022-09-12T02:14:24.350Z,20.22
2022-09-12T02:17:18.932Z,20.20
2022-09-12T02:20:44.366Z,20.16
2022-09-12T02:23:27.987Z,20.12
2022-09-12T02:26:04.709Z,20.09
2022-09-12T02:28:39.578Z,20.08
2022-09-12T02:31:23.614Z,20.07
2022-09-12T02:34:41.698Z,20.05
2022-09-12T02:37:57.955Z,20.02
2022-09-12T02:40:28.505Z,19.98
2022-09-12T02:42:58.343Z,19.95
2022-09-12T02:45:28.849Z,19.92
2022-09-12T02:48:36.891Z,19.90
2022-09-12T02:51:06.351Z,19.85
2022-09-12T02:53:37.064Z,19.80
2022-09-12T02:56:13.564Z,19.75
2022-09-12T02:58:43.798Z,19.70
2022-09-12T03:01:41.140Z,19.64
2022-09-12T03:05:05.212Z,19.57
2022-09-12T03:08:12.269Z,19.53
2022-09-12T03:11:11.605Z,19.51
2022-09-12T03:14:03.116Z,19.46
2022-09-12T03:16:59.638Z,19.40
2022-09-12T03:20:10.019Z,19.35
2022-09-12T03:23:11.891Z,19.31
2022-09-12T03:25:52.021Z,19.27
2022-09-12T03:28:24.759Z,19.24
2022-09-12T03:30:55.750Z,19.19
2022-09-12T03:33:27.403Z,19.16
2022-09-12T03:35:58.048Z,19.15
2022-09-12T03:38:27.130Z,19.11
2022-09-12T03:40:56.552Z,19.07
2022-09-12T03:43:25.806Z,19.06
2022-09-12T03:45:55.017Z,19.05
2022-09-12T03:48:24.228Z,19.02
2022-09-12T03:50:53.589Z,18.98
2022-09-12T03:53:22.785Z,18.93
2022-09-12T03:55:51.985Z,18.91
2022-09-12T03:58:22.313Z,18.87
2022-09-12T04:00:51.844Z,18.86
2022-09-12T04:03:21.247Z,18.88
2022-09-12T04:05:50.478Z,18.90
2022-09-12T04:08:19.813Z,18.91
2022-09-12T04:10:49.200Z,18.93
2022-09-12T04:13:18.613Z,18.93
2022-09-12T04:15:59.628Z,18.92
2022-09-12T04:18:30.198Z,18.93
2022-09-12T04:21:00.107Z,18.94
2022-09-12T04:23:29.625Z,18.92
2022-09-12T04:26:01.955Z,18.91
2022-09-12T04:28:31.766Z,18.91
2022-09-12T04:31:08.422Z,18.93
2022-09-12T04:33:38.590Z,18.93
2022-09-12T04:36:11.416Z,18.92
2022-09-12T04:38:40.596Z,18.89
2022-09-12T04:41:19.180Z,18.87
2022-09-12T04:43:52.901Z,18.85
2022-09-12T04:46:22.847Z,18.82
2022-09-12T04:48:56.698Z,18.81
2022-09-12T04:51:34.791Z,18.80
2022-09-12T04:54:13.270Z,18.80
2022-09-12T04:56:45.217Z,18.78
2022-09-12T04:59:17.513Z,18.74
2022-09-12T05:01:46.909Z,18.72
2022-09-12T05:04:16.303Z,18.70
2022-09-12T05:06:48.030Z,18.66
2022-09-12T05:09:17.580Z,18.59
2022-09-12T05:12:03.862Z,18.53
2022-09-12T05:14:35.234Z,18.45
2022-09-12T05:17:07.005Z,18.36
2022-09-12T05:19:36.513Z,18.25
2022-09-12T05:22:07.791Z,18.16
2022-09-12T05:24:39.045Z,18.09
2022-09-12T05:27:08.546Z,18.01
2022-09-12T05:29:37.995Z,17.92
2022-09-12T05:32:10.771Z,17.83
2022-09-12T05:34:40.784Z,17.74
2022-09-12T05:37:10.930Z,17.65
2022-09-12T05:39:40.243Z,17.58
2022-09-12T05:42:10.192Z,17.49
2022-09-12T05:44:39.436Z,17.39
2022-09-12T05:47:08.942Z,17.30
2022-09-12T05:49:39.071Z,17.22
2022-09-12T05:52:08.481Z,17.16
2022-09-12T05:54:37.852Z,17.10
2022-09-12T05:57:07.458Z,17.03
2022-09-12T05:59:36.951Z,16.96
2022-09-12T06:02:06.311Z,16.90
2022-09-12T06:04:35.618Z,16.85
2022-09-12T06:07:05.786Z,16.79
2022-09-12T06:09:35.135Z,16.76
2022-09-12T06:12:04.995Z,16.73
2022-09-12T06:14:34.436Z,16.69
2022-09-12T06:17:03.589Z,16.65
2022-09-12T06:19:33.112Z,16.59
2022-09-12T06:22:02.712Z,16.54
2022-09-12T06:24:31.972Z,16.47
2022-09-12T06:27:01.047Z,16.43
2022-09-12T06:29:30.874Z,16.39
2022-09-12T06:32:00.415Z,16.32
2022-09-12T06:34:29.479Z,16.28
2022-09-12T06:36:59.198Z,16.23
2022-09-12T06:39:28.563Z,16.18
2022-09-12T06:41:58.034Z,16.14
2022-09-12T06:44:27.149Z,16.11
2022-09-12T06:46:56.530Z,16.07
2022-09-12T06:49:25.905Z,16.02
2022-09-12T06:51:55.175Z,15.96
2022-09-12T06:54:24.766Z,15.92
2022-09-12T06:56:57.122Z,15.86
2022-09-12T06:59:26.870Z,15.78
2022-09-12T07:01:56.079Z,15.72
2022-09-12T07:04:25.364Z,15.66
2022-09-12T07:06:54.509Z,15.58
2022-09-12T07:09:24.113Z,15.51
2022-09-12T07:11:53.449Z,15.46
2022-09-12T07:14:22.858Z,15.42
2022-09-12T07:16:52.009Z,15.36
2022-09-12T07:19:21.266Z,15.30
2022-09-12T07:21:54.206Z,15.23
2022-09-12T07:24:25.901Z,15.19
2022-09-12T07:26:55.125Z,15.14
2022-09-12T07:29:39.546Z,15.08
2022-09-12T07:32:09.183Z,15.03
2022-09-12T07:34:38.344Z,14.98
2022-09-12T07:37:07.599Z,14.95
2022-09-12T07:39:36.759Z,14.90
2022-09-12T07:42:06.181Z,14.86
2022-09-12T07:44:35.336Z,14.81
2022-09-12T07:47:04.786Z,14.77
2022-09-12T07:49:34.264Z,14.71
2022-09-12T07:52:04.014Z,14.66
2022-09-12T07:54:34.383Z,14.61
2022-09-12T07:57:03.350Z,14.56
2022-09-12T07:59:51.374Z,14.52
2022-09-12T08:02:22.391Z,14.44
2022-09-12T08:04:52.463Z,14.40
2022-09-12T08:07:21.702Z,14.33
2022-09-12T08:09:51.053Z,14.26
2022-09-12T08:12:21.421Z,14.21
2022-09-12T08:14:50.673Z,14.19
2022-09-12T08:17:19.880Z,14.16
2022-09-12T08:19:49.374Z,14.14
2022-09-12T08:22:22.913Z,14.12
2022-09-12T08:24:52.613Z,14.08
2022-09-12T08:27:21.760Z,14.06
2022-09-12T08:29:50.770Z,14.03
2022-09-12T08:32:20.152Z,14.01
2022-09-12T08:34:49.403Z,13.98
2022-09-12T08:37:18.537Z,13.95
2022-09-12T08:39:47.793Z,13.90
2022-09-12T08:42:52.179Z,13.86
2022-09-12T08:45:47.628Z,13.81
2022-09-12T08:48:16.979Z,13.76
2022-09-12T08:50:49.993Z,13.71
2022-09-12T08:53:26.865Z,13.68
2022-09-12T08:56:01.186Z,13.62
2022-09-12T08:58:32.541Z,13.57
2022-09-12T09:01:10.957Z,13.52
2022-09-12T09:04:14.145Z,13.45
2022-09-12T09:07:08.455Z,13.31
2022-09-12T09:10:02.968Z,13.20
2022-09-12T09:13:01.989Z,13.11
2022-09-12T09:16:31.808Z,13.01
2022-09-12T09:19:09.638Z,12.90
2022-09-12T09:22:17.330Z,12.84
2022-09-12T09:25:02.338Z,12.75
2022-09-12T09:27:50.559Z,12.65
2022-09-12T09:30:23.601Z,12.59
2022-09-12T09:33:04.440Z,12.52
2022-09-12T09:36:00.166Z,12.44
2022-09-12T09:39:03.986Z,12.39
2022-09-12T09:41:39.304Z,12.35
2022-09-12T09:46:37.652Z,12.31
2022-09-12T09:49:09.249Z,12.28
2022-09-12T09:51:41.906Z,12.26
2022-09-12T09:54:22.804Z,12.23
2022-09-12T09:56:52.445Z,12.17
2022-09-12T09:59:35.594Z,12.14
2022-09-12T10:02:24.169Z,12.11
2022-09-12T10:05:00.758Z,12.05
2022-09-12T10:07:30.137Z,12.01
2022-09-12T10:10:24.214Z,11.97
2022-09-12T10:13:11.186Z,11.94
2022-09-12T10:15:40.441Z,11.87
2022-09-12T10:18:09.805Z,11.82
2022-09-12T10:20:45.772Z,11.78
2022-09-12T10:23:38.900Z,11.74
2022-09-12T10:26:18.131Z,11.68
2022-09-12T10:28:56.308Z,11.64
2022-09-12T10:31:52.649Z,11.61
2022-09-12T10:34:46.916Z,11.56
2022-09-12T10:37:40.558Z,11.48
2022-09-12T10:40:27.500Z,11.39
2022-09-12T10:43:04.279Z,11.34
2022-09-12T10:45:37.293Z,11.29
2022-09-12T10:48:33.302Z,11.22
2022-09-12T10:51:04.008Z,11.15
2022-09-12T10:53:46.727Z,11.11
2022-09-12T10:56:25.597Z,11.06
2022-09-12T10:59:21.472Z,10.98
2022-09-12T11:02:32.430Z,10.92
2022-09-12T11:05:37.700Z,10.86
2022-09-12T11:08:46.113Z,10.81
2022-09-12T11:11:53.474Z,10.76
2022-09-12T11:14:40.494Z,10.69
2022-09-12T11:17:30.522Z,10.60
2022-09-12T11:20:13.343Z,10.52
2022-09-12T11:23:09.998Z,10.47
2022-09-12T11:26:07.722Z,10.42
2022-09-12T11:29:09.365Z,10.36
2022-09-12T11:32:22.271Z,10.27
2022-09-12T11:35:25.742Z,10.15
2022-09-12T11:38:13.664Z,10.06
2022-09-12T11:41:33.015Z,9.98
2022-09-12T11:44:27.100Z,9.90
2022-09-12T11:46:56.760Z,9.85
2022-09-12T11:49:39.870Z,9.79
2022-09-12T11:52:24.887Z,9.75
2022-09-12T11:55:18.154Z,9.73
2022-09-12T11:57:59.674Z,9.67
2022-09-12T12:00:43.262Z,9.64
2022-09-12T12:03:38.656Z,9.57
2022-09-12T12:06:15.888Z,9.49
2022-09-12T12:08:48.342Z,9.40
2022-09-12T12:11:54.647Z,9.33
2022-09-12T12:14:51.232Z,9.27
2022-09-12T12:17:26.653Z,9.24
2022-09-12T12:20:08.353Z,9.22
2022-09-12T12:22:38.325Z,9.20
2022-09-12T12:25:40.225Z,9.14
2022-09-12T12:28:10.195Z,9.13
2022-09-12T12:30:42.154Z,9.10
2022-09-12T12:33:19.241Z,9.06
2022-09-12T12:36:11.614Z,9.05
2022-09-12T12:38:42.266Z,9.02
2022-09-12T12:41:20.373Z,8.97
2022-09-12T12:43:55.532Z,8.91
2022-09-12T12:46:31.515Z,8.85
2022-09-12T12:49:29.492Z,8.77
2022-09-12T12:52:04.770Z,8.71
2022-09-12T12:54:54.640Z,8.68
2022-09-12T12:57:51.640Z,8.67
2022-09-12T13:00:27.191Z,8.64
2022-09-12T13:03:08.101Z,8.61
2022-09-12T13:05:55.503Z,8.58
2022-09-12T13:08:36.476Z,8.54
2022-09-12T13:11:28.365Z,8.50
2022-09-12T13:14:50.237Z,8.45
2022-09-12T13:17:28.047Z,8.40
2022-09-12T13:20:30.855Z,8.38
2022-09-12T13:23:04.168Z,8.37
2022-09-12T13:25:38.714Z,8.32
2022-09-12T13:28:12.385Z,8.29
2022-09-12T13:30:57.984Z,8.28
2022-09-12T13:34:09.006Z,8.26
2022-09-12T13:37:27.885Z,8.27
2022-09-12T13:40:37.366Z,8.23
2022-09-12T13:43:42.455Z,8.23
2022-09-12T13:46:17.584Z,8.27
2022-09-12T13:48:47.576Z,8.28
2022-09-12T13:51:31.139Z,8.29
2022-09-12T13:54:06.635Z,8.28
2022-09-12T13:56:37.828Z,8.24
2022-09-12T13:59:14.439Z,8.27
2022-09-12T14:01:49.516Z,8.31
2022-09-12T14:04:45.237Z,8.35
2022-09-12T14:07:25.336Z,8.38
2022-09-12T14:10:01.517Z,8.39
2022-09-12T14:12:44.721Z,8.35
2022-09-12T14:15:25.641Z,8.33
2022-09-12T14:18:04.351Z,8.36
2022-09-12T14:20:39.770Z,8.37
2022-09-12T14:23:22.597Z,8.36
2022-09-12T14:25:53.141Z,8.36
2022-09-12T14:28:23.811Z,8.36
2022-09-12T14:31:25.088Z,8.35
2022-09-12T14:34:12.497Z,8.27
2022-09-12T14:36:58.254Z,8.25
2022-09-12T14:39:45.286Z,8.30
2022-09-12T14:42:21.739Z,8.33
2022-09-12T14:45:22.075Z,8.35
2022-09-12T14:47:54.403Z,8.36
2022-09-12T14:50:36.347Z,8.35
2022-09-12T14:53:19.747Z,8.34
2022-09-12T14:56:11.746Z,8.34
2022-09-12T14:58:43.055Z,8.43
2022-09-12T15:01:15.468Z,8.52
2022-09-12T15:03:52.531Z,8.59
2022-09-12T15:06:42.156Z,8.68
2022-09-12T15:09:15.606Z,8.74
2022-09-12T15:11:45.524Z,8.80
2022-09-12T15:14:18.717Z,8.83
2022-09-12T15:16:47.899Z,8.87
2022-09-12T15:19:17.222Z,8.95
2022-09-12T15:21:46.515Z,9.02
2022-09-12T15:24:16.384Z,9.16
2022-09-12T15:26:45.474Z,9.29
2022-09-12T15:29:15.022Z,9.46
2022-09-12T15:31:48.809Z,9.61
2022-09-12T15:34:18.283Z,9.76
2022-09-12T15:36:47.672Z,9.91
2022-09-12T15:39:17.231Z,10.05
2022-09-12T15:41:46.617Z,10.20
2022-09-12T15:44:15.941Z,10.36
2022-09-12T15:46:46.365Z,10.53
2022-09-12T15:49:16.270Z,10.68
2022-09-12T15:51:45.439Z,10.80
2022-09-12T15:54:18.422Z,10.91
2022-09-12T15:56:47.944Z,11.04
2022-09-12T15:59:18.175Z,11.15
2022-09-12T16:01:48.136Z,11.25
2022-09-12T16:04:30.080Z,11.34
2022-09-12T16:06:59.631Z,11.44
2022-09-12T16:09:29.267Z,11.54
2022-09-12T16:11:58.606Z,11.61
2022-09-12T16:14:27.682Z,11.70
2022-09-12T16:16:57.944Z,11.79
2022-09-12T16:19:28.123Z,11.87
2022-09-12T16:21:57.545Z,11.96
2022-09-12T16:24:27.134Z,12.05
2022-09-12T16:27:00.912Z,12.13
2022-09-12T16:29:31.450Z,12.21
2022-09-12T16:32:00.694Z,12.30
2022-09-12T16:34:29.867Z,12.43
2022-09-12T16:36:59.044Z,12.63
2022-09-12T16:39:28.642Z,12.84
2022-09-12T16:41:57.971Z,12.97
2022-09-12T16:44:27.249Z,13.09
2022-09-12T16:46:56.802Z,13.17
2022-09-12T16:49:26.180Z,13.24
2022-09-12T16:51:55.529Z,13.32
2022-09-12T16:54:25.179Z,13.41
2022-09-12T16:56:54.656Z,13.49
2022-09-12T16:59:23.765Z,13.61
2022-09-12T17:01:53.297Z,13.73
2022-09-12T17:04:23.710Z,13.84
2022-09-12T17:06:53.272Z,13.96
2022-09-12T17:09:23.114Z,14.02
2022-09-12T17:11:53.468Z,14.05
2022-09-12T17:14:22.907Z,14.08
2022-09-12T17:16:53.342Z,14.11
2022-09-12T17:19:30.879Z,14.18
2022-09-12T17:22:00.689Z,14.27
2022-09-12T17:24:30.314Z,14.38
2022-09-12T17:27:00.395Z,14.48
2022-09-12T17:29:29.743Z,14.61
2022-09-12T17:31:58.926Z,14.73
2022-09-12T17:34:28.186Z,14.87
2022-09-12T17:36:57.380Z,14.99
2022-09-12T17:39:26.553Z,15.12
2022-09-12T17:41:58.503Z,15.24
2022-09-12T17:44:30.222Z,15.35
2022-09-12T17:46:59.488Z,15.43
2022-09-12T17:49:29.347Z,15.52
2022-09-12T17:51:58.918Z,15.65
2022-09-12T17:54:28.888Z,15.78
2022-09-12T17:56:58.359Z,15.89
2022-09-12T17:59:28.116Z,15.97
2022-09-12T18:02:17.064Z,16.00
2022-09-12T18:04:48.540Z,16.08
2022-09-12T18:07:20.315Z,16.18
2022-09-12T18:09:50.532Z,16.25
2022-09-12T18:12:21.063Z,16.34
2022-09-12T18:14:50.181Z,16.44
2022-09-12T18:17:19.678Z,16.53
2022-09-12T18:19:53.501Z,16.60
2022-09-12T18:22:23.034Z,16.67
2022-09-12T18:24:52.220Z,16.74
2022-09-12T18:27:21.399Z,16.78
2022-09-12T18:30:10.296Z,16.84
2022-09-12T18:32:40.023Z,16.87
2022-09-12T18:35:10.127Z,16.85
2022-09-12T18:37:41.501Z,16.87
2022-09-12T18:40:11.435Z,16.92
2022-09-12T18:42:40.840Z,16.98
2022-09-12T18:45:10.447Z,17.06
2022-09-12T18:47:39.486Z,17.15
2022-09-12T18:50:09.194Z,17.22
2022-09-12T18:52:38.559Z,17.30
2022-09-12T18:55:08.410Z,17.34
2022-09-12T18:57:37.536Z,17.35
2022-09-12T19:00:12.262Z,17.38
2022-09-12T19:02:41.735Z,17.39
2022-09-12T19:05:13.443Z,17.42
2022-09-12T19:07:42.938Z,17.48
2022-09-12T19:10:13.142Z,17.56
2022-09-12T19:12:42.453Z,17.63
2022-09-12T19:15:11.941Z,17.64
2022-09-12T19:17:41.276Z,17.64
2022-09-12T19:20:11.159Z,17.69
2022-09-12T19:22:40.496Z,17.75
2022-09-12T19:25:10.221Z,17.82
2022-09-12T19:27:39.567Z,17.87
2022-09-12T19:30:09.326Z,17.91
2022-09-12T19:32:38.643Z,17.96
2022-09-12T19:35:08.345Z,18.01
2022-09-12T19:37:37.693Z,18.12
2022-09-12T19:40:08.762Z,18.25
2022-09-12T19:42:37.919Z,18.31
2022-09-12T19:45:07.891Z,18.35
2022-09-12T19:47:40.045Z,18.42
2022-09-12T19:50:10.369Z,18.49
2022-09-12T19:52:39.515Z,18.50
2022-09-12T19:55:10.152Z,18.50
2022-09-12T19:57:39.306Z,18.55
2022-09-12T20:00:10.362Z,18.59
2022-09-12T20:02:39.697Z,18.56
2022-09-12T20:05:09.425Z,18.61
2022-09-12T20:07:39.399Z,18.69
2022-09-12T20:10:09.177Z,18.82
2022-09-12T20:12:38.310Z,18.93
2022-09-12T20:15:09.424Z,19.01
2022-09-12T20:17:38.883Z,19.08
2022-09-12T20:20:12.284Z,19.08
2022-09-12T20:22:41.712Z,19.10
2022-09-12T20:25:11.044Z,19.14
2022-09-12T20:27:40.159Z,19.25
2022-09-12T20:30:10.630Z,19.32
2022-09-12T20:32:39.852Z,19.34
2022-09-12T20:35:10.567Z,19.39
2022-09-12T20:37:41.586Z,19.45
2022-09-12T20:40:12.539Z,19.56
2022-09-12T20:42:41.931Z,19.62
2022-09-12T20:45:11.436Z,19.64
2022-09-12T20:47:40.573Z,19.65
2022-09-12T20:50:10.520Z,19.64
2022-09-12T20:52:39.926Z,19.60
2022-09-12T20:55:09.792Z,19.62
2022-09-12T20:57:39.495Z,19.69
2022-09-12T21:00:11.234Z,19.75
2022-09-12T21:02:40.455Z,19.72
2022-09-12T21:05:10.201Z,19.63
2022-09-12T21:07:39.509Z,19.54
2022-09-12T21:10:09.151Z,19.58
2022-09-12T21:12:38.654Z,19.63
2022-09-12T21:15:09.185Z,19.67
2022-09-12T21:17:38.361Z,19.72
2022-09-12T21:20:11.237Z,19.77
2022-09-12T21:22:40.886Z,19.81
2022-09-12T21:25:14.885Z,19.84
2022-09-12T21:27:44.321Z,19.84
2022-09-12T21:30:15.246Z,19.75
2022-09-12T21:32:44.625Z,19.70
2022-09-12T21:35:13.905Z,19.69
2022-09-12T21:37:43.388Z,19.62
2022-09-12T21:40:13.127Z,19.53
2022-09-12T21:42:42.967Z,19.50
2022-09-12T21:45:13.111Z,19.45
2022-09-12T21:47:42.464Z,19.39
2022-09-12T21:50:12.538Z,19.28
2022-09-12T21:52:41.702Z,19.21
2022-09-12T21:55:11.814Z,19.12
2022-09-12T21:57:41.251Z,19.06
2022-09-12T22:00:19.037Z,19.03
2022-09-12T22:02:50.680Z,18.94
2022-09-12T22:05:25.599Z,18.92
2022-09-12T22:07:54.911Z,18.91
2022-09-12T22:10:24.287Z,18.89
2022-09-12T22:12:53.612Z,18.82
2022-09-12T22:15:39.941Z,18.79
2022-09-12T22:18:09.988Z,18.74
2022-09-12T22:20:39.192Z,18.66
2022-09-12T22:23:29.075Z,18.63
2022-09-12T22:25:59.037Z,18.55
2022-09-12T22:28:28.434Z,18.47
2022-09-12T22:30:57.928Z,18.38
2022-09-12T22:33:27.500Z,18.31
2022-09-12T22:35:57.102Z,18.25
2022-09-12T22:38:27.260Z,18.22
2022-09-12T22:40:56.504Z,18.18
2022-09-12T22:43:26.126Z,18.14
2022-09-12T22:45:56.449Z,18.11
2022-09-12T22:48:26.049Z,18.09
2022-09-12T22:50:56.411Z,18.07
2022-09-12T22:53:25.760Z,18.07
2022-09-12T22:55:55.120Z,18.06
2022-09-12T22:58:24.481Z,18.02
2022-09-12T23:00:56.765Z,18.01
2022-09-12T23:03:25.949Z,18.00
2022-09-12T23:05:55.202Z,18.01
2022-09-12T23:08:24.483Z,18.03
2022-09-12T23:11:00.845Z,18.04
2022-09-12T23:13:30.497Z,17.99
2022-09-12T23:16:06.309Z,17.96
2022-09-12T23:18:39.011Z,17.97
2022-09-12T23:21:12.306Z,17.97
2022-09-12T23:23:41.671Z,17.97
2022-09-12T23:26:25.477Z,17.92
2022-09-12T23:28:58.778Z,17.88
2022-09-12T23:31:31.382Z,17.86
2022-09-12T23:34:03.714Z,17.86
2022-09-12T23:36:33.612Z,17.83
2022-09-12T23:39:03.402Z,17.82
2022-09-12T23:41:32.848Z,17.80
2022-09-12T23:44:02.264Z,17.81
2022-09-12T23:46:31.614Z,17.79
2022-09-12T23:49:00.823Z,17.80
2022-09-12T23:51:30.139Z,17.81
2022-09-12T23:53:59.615Z,17.85
2022-09-12T23:56:29.216Z,17.88
2022-09-12T23:58:58.424Z,17.90
